Latest Weather Observations for Cummins Airport

IDS60801

Issued at 9:05 pm CDT Saturday 1 November 2014 (issued every 30 minutes, with the page automatically refreshed every 10 minutes)

About weather observations | Map of weather stations | Latest weather observations for SA | Other Formats
Station Details ID: 018217 Name: CUMMINS AERO Lat: -34.25 Lon: 135.71 Height: 60.11 m
Data from the previous 72 hours. | See also: Recent months at Cummins Airport
Date/Time
CDT
Temp
°C
App
Temp
°C
Dew
Point
Rel
Hum
%
Delta-T
°C
Wind Press
QNH
hPa
Press
MSL
hPa
Rain
since 9 am
mm
Dir
 
Spd
km/h
Gust
km/h
Spd
kts
Gust
kts
01/09:00pm 9.8 6.6 2.9 62 3.0 SSW 9 11 5 6 1023.7 1023.6 0.0
01/08:30pm 11.3 7.4 3.3 58 3.5 SSW 13 17 7 9 1023.4 1023.3 0.0
01/08:00pm 12.8 8.2 3.5 53 4.2 SSW 17 22 9 12 1023.0 1022.9 0.0
01/07:30pm 13.7 8.1 3.5 50 4.6 SSW 22 28 12 15 1022.6 1022.5 0.0
01/07:00pm 14.7 8.0 3.5 47 5.1 SSW 28 35 15 19 1022.1 1022.0 0.0
01/06:30pm 15.3 9.3 3.5 45 5.4 SSW 24 37 13 20 1021.6 1021.5 0.0
01/06:00pm 15.8 9.1 3.9 45 5.5 SSW 28 39 15 21 1021.2 1021.1 0.0
01/05:30pm 17.2 10.7 2.8 38 6.6 SSW 26 35 14 19 1020.8 1020.7 0.0
01/05:00pm 17.4 10.4 2.2 36 6.9 SW 28 43 15 23 1020.6 1020.5 0.0
01/04:30pm 18.1 10.7 2.0 34 7.3 SW 30 41 16 22 1020.3 1020.2 0.0
01/04:00pm 17.8 10.6 2.9 37 6.9 SSW 30 43 16 23 1020.2 1020.1 0.0
01/03:30pm 18.1 11.3 3.2 37 6.9 SW 28 41 15 22 1020.2 1020.1 0.0
01/03:00pm 17.8 11.2 4.0 40 6.5 SW 28 43 15 23 1020.0 1019.9 0.0
01/02:30pm 19.1 12.7 3.3 35 7.4 SSW 26 35 14 19 1020.0 1019.9 0.0
01/02:00pm 17.9 10.9 1.8 34 7.3 WSW 28 43 15 23 1020.0 1019.9 0.0
01/01:54pm 18.4 11.4 1.9 33 7.5 SW 28 46 15 25 1020.0 1019.9 0.0
01/01:30pm 18.5 11.6 2.8 35 7.2 SSW 28 41 15 22 1019.8 1019.7 0.0
01/01:00pm 17.7 11.3 3.2 38 6.7 SW 26 37 14 20 1019.7 1019.6 0.0
01/12:30pm 18.0 11.6 3.1 37 6.9 SW 26 43 14 23 1019.7 1019.6 0.0
01/12:00pm 18.2 12.3 1.7 33 7.4 SSW 22 33 12 18 1019.6 1019.5 0.0
01/11:30am 16.4 10.1 3.5 42 5.9 SSW 26 37 14 20 1019.5 1019.4 0.0
01/11:00am 16.4 9.5 2.4 39 6.3 WSW 28 41 15 22 1019.4 1019.3 0.0
01/10:30am 16.3 8.5 1.6 37 6.5 SW 32 41 17 22 1019.2 1019.1 0.0
01/10:00am 15.8 7.5 2.2 40 6.1 SW 35 50 19 27 1018.7 1018.6 0.0
01/09:30am 16.7 9.1 3.0 40 6.3 SW 32 41 17 22 1018.3 1018.2 0.0
01/09:00am 14.8 6.4 3.6 47 5.1 SW 37 48 20 26 1017.8 1017.7 0.4
01/08:39am 14.5 6.7 4.8 52 4.5 SSW 35 56 19 30 1017.2 1017.1 0.4
01/08:30am 15.0 8.9 6.8 58 4.0 SSW 28 39 15 21 1017.0 1016.9 0.4
01/08:00am 13.3 8.7 8.2 71 2.5 SSW 22 33 12 18 1016.7 1016.6 0.4
01/07:30am 12.4 9.1 7.9 74 2.2 SW 15 22 8 12 1016.1 1016.0 0.4
01/07:00am 11.6 8.3 7.9 78 1.8 SW 15 19 8 10 1015.3 1015.2 0.4
01/06:30am 11.2 7.9 8.2 82 1.5 SSW 15 22 8 12 1014.9 1014.8 0.4
01/06:00am 10.3 7.5 7.0 80 1.6 WSW 11 13 6 7 1014.1 1014.0 0.4
01/05:30am 10.0 6.7 6.3 78 1.7 WSW 13 15 7 8 1013.8 1013.7 0.4
01/05:00am 11.1 7.8 6.5 73 2.2 WSW 13 19 7 10 1013.4 1013.3 0.4
01/04:30am 10.7 7.4 6.3 74 2.1 WSW 13 17 7 9 1013.0 1012.9 0.4
01/04:00am 11.3 7.2 6.2 71 2.4 SW 17 24 9 13 1012.6 1012.5 0.4
01/03:30am 11.1 7.1 6.8 75 2.0 SW 17 22 9 12 1012.2 1012.1 0.4
01/03:00am 12.2 7.6 8.3 77 1.9 SW 22 30 12 16 1011.8 1011.7 0.4
01/02:30am 13.2 8.5 9.3 77 2.0 SW 24 35 13 19 1011.4 1011.3 0.4
01/02:00am 12.8 9.3 10.3 85 1.3 SW 19 24 10 13 1011.1 1011.0 0.4
01/01:30am 13.8 9.7 11.5 86 1.2 SW 24 37 13 20 1011.0 1010.9 0.4
01/01:00am 13.5 10.4 12.2 92 0.7 W 20 22 11 12 1010.5 1010.5 0.4
01/12:30am 13.7 10.6 12.1 90 0.9 W 20 26 11 14 1010.3 1010.3 0.4
01/12:00am 14.1 11.1 12.5 90 0.9 W 20 28 11 15 1010.3 1010.3 0.4
 
Date/Time
CDT
Temp
°C
App
Temp
°C
Dew
Point
Rel
Hum
%
Delta-T
°C
Wind Press
QNH
hPa
Press
MSL
hPa
Rain
since 9 am
mm
Dir
 
Spd
km/h
Gust
km/h
Spd
kts
Gust
kts
31/11:30pm 14.0 12.3 12.6 91 0.8 W 13 24 7 13 1010.0 1010.0 0.4
31/11:00pm 13.4 12.0 12.1 92 0.7 W 11 13 6 7 1009.6 1009.6 0.4
31/10:30pm 13.0 12.3 12.1 94 0.5 W 7 13 4 7 1009.1 1009.1 0.4
31/10:00pm 12.7 12.0 11.4 92 0.7 SW 6 9 3 5 1008.7 1008.7 0.4
31/09:30pm 13.3 11.4 11.9 91 0.8 SSW 13 17 7 9 1007.8 1007.8 0.4
31/09:00pm 14.1 12.3 12.1 88 1.1 SW 13 15 7 8 1007.7 1007.7 0.4
31/08:30pm 14.3 12.0 11.8 85 1.4 SW 15 20 8 11 1007.7 1007.7 0.4
31/08:00pm 14.6 11.6 12.1 85 1.4 SSW 19 28 10 15 1007.0 1007.0 0.4
31/07:30pm 15.4 12.7 13.4 88 1.1 SW 20 28 11 15 1006.5 1006.5 0.4
31/07:00pm 15.7 12.2 13.4 86 1.3 SSW 24 32 13 17 1005.4 1005.3 0.4
31/06:30pm 15.7 12.8 12.8 83 1.6 SW 20 26 11 14 1005.3 1005.2 0.2
31/06:00pm 16.3 12.7 13.0 81 1.8 SW 24 35 13 19 1004.9 1004.8 0.0
31/05:30pm 18.6 13.9 12.1 66 3.6 SSW 28 32 15 17 1004.7 1004.6 0.0
31/05:00pm 20.0 14.4 12.0 60 4.5 SSW 33 44 18 24 1003.9 1003.8 0.0
31/04:30pm 22.2 16.2 10.7 48 6.4 WSW 33 46 18 25 1003.6 1003.5 0.0
31/04:00pm 24.4 19.0 11.0 43 7.5 SW 30 39 16 21 1003.2 1003.1 0.0
31/03:30pm 26.5 22.7 12.5 41 8.2 WSW 24 35 13 19 1003.0 1002.9 0.0
31/03:00pm 27.4 22.5 11.4 37 9.2 WSW 28 39 15 21 1003.1 1003.0 0.0
31/02:30pm 27.0 22.2 10.2 35 9.4 W 26 41 14 22 1003.2 1003.1 0.0
31/02:00pm 25.6 21.9 11.4 41 8.1 WSW 22 30 12 16 1003.4 1003.3 0.0
31/01:30pm 26.6 21.9 10.7 37 9.0 W 26 35 14 19 1003.5 1003.4 0.0
31/01:00pm 27.5 23.3 11.1 36 9.3 SSW 24 30 13 16 1003.5 1003.4 0.0
31/12:30pm 29.7 24.8 7.0 24 12.3 WSW 22 37 12 20 1003.2 1003.1 0.0
31/12:00pm 29.6 25.5 4.3 20 13.1 WSW 15 24 8 13 1003.2 1003.1 0.0
31/11:30am 28.3 22.5 4.6 22 12.2 W 24 32 13 17 1003.6 1003.5 0.0
31/11:00am 29.0 24.3 5.1 22 12.4 W 19 26 10 14 1003.6 1003.5 0.0
31/10:30am 28.2 23.6 3.8 21 12.4 W 17 24 9 13 1003.5 1003.4 0.0
31/10:00am 26.5 20.9 1.0 19 12.1 WNW 20 30 11 16 1003.9 1003.8 0.0
31/09:30am 26.2 21.7 0.0 18 12.2 NW 13 17 7 9 1004.2 1004.1 0.0
31/09:02am 24.6 17.5 1.5 22 10.9 W 28 52 15 28 1004.7 1004.6 0.0
31/09:00am 26.4 21.8 1.7 20 11.9 NNW 15 20 8 11 1004.4 1004.3 0.0
31/08:30am 22.1 19.7 4.2 31 8.8 NW 6 11 3 6 1004.1 1004.0 0.0
31/08:00am 18.8 17.3 6.9 46 6.0 WNW 4 13 2 7 1004.1 1004.0 0.0
31/07:30am 15.1 14.5 7.2 59 3.9 CALM 0 0 0 0 1004.0 1003.9 0.0
31/07:00am 12.2 11.3 6.0 66 2.9 CALM 0 0 0 0 1003.9 1003.8 0.0
31/06:30am 11.7 10.7 5.6 66 2.8 CALM 0 0 0 0 1004.2 1004.1 0.0
31/06:00am 13.6 12.7 6.2 61 3.6 CALM 0 0 0 0 1004.4 1004.3 0.0
31/05:30am 15.0 14.3 6.8 58 4.0 CALM 0 0 0 0 1004.6 1004.5 0.0
31/05:00am 15.9 15.3 7.4 57 4.2 CALM 0 0 0 0 1004.8 1004.7 0.0
31/04:30am 15.8 15.2 7.3 57 4.2 CALM 0 6 0 3 1005.1 1005.0 0.0
31/04:00am 15.8 14.7 7.0 56 4.3 NNW 2 7 1 4 1005.7 1005.6 0.0
31/03:30am 15.8 15.0 6.3 53 4.6 CALM 0 0 0 0 1005.9 1005.8 0.0
31/03:00am 17.3 16.6 7.1 51 5.1 CALM 0 6 0 3 1006.0 1005.9 0.0
31/02:30am 18.7 16.2 6.5 45 6.1 E 9 17 5 9 1006.7 1006.7 0.0
31/02:00am 18.3 15.9 6.8 47 5.8 E 9 13 5 7 1007.4 1007.4 0.0
31/01:30am 17.7 15.7 6.3 47 5.6 NE 6 9 3 5 1007.9 1007.9 0.0
31/01:00am 18.3 14.9 4.1 39 6.7 ENE 11 20 6 11 1008.3 1008.3 0.0
31/12:30am 18.8 16.4 -0.6 27 8.4 NE 2 11 1 6 1008.5 1008.5 0.0
31/12:00am 19.6 14.1 -2.1 23 9.2 ENE 17 26 9 14 1008.7 1008.7 0.0
 
Date/Time
CDT
Temp
°C
App
Temp
°C
Dew
Point
Rel
Hum
%
Delta-T
°C
Wind Press
QNH
hPa
Press
MSL
hPa
Rain
since 9 am
mm
Dir
 
Spd
km/h
Gust
km/h
Spd
kts
Gust
kts
30/11:30pm 18.8 14.5 0.9 30 8.0 ENE 13 20 7 11 1009.2 1009.2 0.0
30/11:00pm 18.4 15.2 5.3 42 6.4 NE 11 17 6 9 1009.6 1009.6 0.0
30/10:30pm 18.7 14.8 3.3 36 7.2 ENE 13 19 7 10 1009.7 1009.7 0.0
30/10:00pm 19.3 15.7 0.4 28 8.4 E 9 13 5 7 1010.1 1010.1 0.0
30/09:30pm 20.4 15.5 -0.3 25 9.2 E 15 22 8 12 1010.1 1010.1 0.0
30/09:00pm 21.1 17.9 -0.8 23 9.6 ESE 6 11 3 6 1010.2 1010.2 0.0
30/08:30pm 21.6 18.6 0.8 25 9.5 S 6 13 3 7 1010.3 1010.3 0.0
30/08:00pm 22.4 18.3 2.0 26 9.6 ENE 13 19 7 10 1010.1 1010.1 0.0
30/07:30pm 23.8 18.7 3.2 26 10.0 ENE 19 24 10 13 1009.9 1009.9 0.0
30/07:00pm 24.5 19.3 5.3 29 9.7 ENE 22 32 12 17 1009.8 1009.8 0.0
30/06:30pm 25.8 20.6 5.4 27 10.5 ENE 22 30 12 16 1009.8 1009.8 0.0
30/06:00pm 27.1 22.5 6.5 27 10.9 E 20 32 11 17 1009.9 1009.9 0.0
30/05:30pm 28.1 23.7 7.4 27 11.1 E 20 28 11 15 1010.1 1010.1 0.0
30/05:00pm 28.7 24.2 8.4 28 11.1 E 22 32 12 17 1010.2 1010.2 0.0
30/04:30pm 30.6 26.2 6.5 22 12.9 ENE 19 28 10 15 1010.4 1010.4 0.0
30/04:00pm 30.6 27.7 4.4 19 13.6 NNE 9 19 5 10 1011.0 1010.9 0.0
30/03:30pm 31.3 27.7 4.9 19 13.9 NNW 13 17 7 9 1011.4 1011.3 0.0
30/03:00pm 29.9 27.5 5.2 21 12.9 W 7 13 4 7 1012.1 1012.0 0.0
30/02:30pm 29.6 26.4 5.0 21 12.8 NE 11 17 6 9 1012.6 1012.5 0.0
30/02:00pm 29.0 26.3 5.8 23 12.2 E 9 20 5 11 1013.0 1012.9 0.0
30/01:30pm 27.8 24.4 6.0 25 11.4 SSE 13 20 7 11 1013.3 1013.2 0.0
30/01:00pm 26.9 23.5 5.8 26 11.0 E 13 20 7 11 1013.7 1013.6 0.0
30/12:30pm 27.5 25.6 7.4 28 10.8 SE 7 17 4 9 1014.2 1014.1 0.0
30/12:00pm 25.4 22.7 7.5 32 9.5 E 11 20 6 11 1014.2 1014.1 0.0
30/11:30am 25.0 22.1 8.1 34 9.0 ENE 13 19 7 10 1014.7 1014.6 0.0
30/11:00am 22.4 20.2 7.8 39 7.6 ENE 9 19 5 10 1015.5 1015.4 0.0
30/10:30am 21.1 18.6 8.4 44 6.7 ENE 11 20 6 11 1015.6 1015.5 0.0
30/10:00am 20.2 17.6 9.2 49 5.8 NE 13 20 7 11 1015.9 1015.8 0.0
30/09:30am 18.8 17.0 9.3 54 5.0 ENE 9 15 5 8 1016.2 1016.1 0.0
30/09:00am 17.4 15.4 10.3 63 3.8 ENE 11 15 6 8 1016.5 1016.4 0.0
30/08:30am 15.4 14.1 10.0 70 2.8 ENE 7 9 4 5 1016.5 1016.4 0.0
30/08:00am 11.9 11.8 9.3 84 1.3 CALM 0 0 0 0 1016.4 1016.3 0.0
30/07:30am 8.4 7.7 7.0 91 0.7 CALM 0 0 0 0 1016.2 1016.1 0.0
30/07:00am 5.8 4.7 4.9 94 0.4 CALM 0 0 0 0 1016.0 1015.9 0.0
30/06:30am 4.4 3.0 3.5 94 0.4 CALM 0 0 0 0 1015.7 1015.6 0.0
30/06:00am 5.2 4.0 4.5 95 0.3 CALM 0 4 0 2 1015.6 1015.5 0.0
30/05:30am 6.0 2.8 5.3 95 0.3 N 11 15 6 8 1015.5 1015.4 0.0
30/05:00am 5.9 3.4 5.0 94 0.4 E 7 9 4 5 1015.8 1015.7 0.0
30/04:30am 7.7 5.7 7.0 95 0.3 SSE 7 11 4 6 1016.4 1016.3 0.0
30/04:00am 7.3 3.7 6.6 95 0.3 S 15 17 8 9 1016.5 1016.4 0.0
30/03:30am 5.6 2.6 4.2 91 0.6 S 9 13 5 7 1016.4 1016.3 0.0
30/03:00am 5.6 3.9 4.1 90 0.6 SSW 2 7 1 4 1016.2 1016.1 0.0
30/02:30am 6.0 3.4 4.2 88 0.8 N 7 9 4 5 1015.9 1015.8 0.0
30/02:00am 6.5 5.3 4.5 87 0.9 CALM 0 7 0 4 1016.4 1016.3 0.0
30/01:30am 7.8 6.8 5.6 86 1.0 CALM 0 0 0 0 1016.7 1016.6 0.0
30/01:00am 9.6 9.0 7.4 86 1.0 CALM 0 4 0 2 1017.2 1017.1 0.0
30/12:30am 9.8 7.5 7.6 86 1.1 SE 9 9 5 5 1017.2 1017.1 0.0
30/12:00am 10.6 8.5 8.2 85 1.2 S 9 11 5 6 1018.1 1018.0 0.0
 
Date/Time
CDT
Temp
°C
App
Temp
°C
Dew
Point
Rel
Hum
%
Delta-T
°C
Wind Press
QNH
hPa
Press
MSL
hPa
Rain
since 9 am
mm
Dir
 
Spd
km/h
Gust
km/h
Spd
kts
Gust
kts
29/11:30pm 11.7 9.4 8.9 83 1.4 S 11 15 6 8 1018.1 1018.0 0.0
29/11:00pm 12.7 10.5 9.2 79 1.8 S 11 11 6 6 1018.3 1018.2 0.0
29/10:30pm 14.2 12.2 10.0 76 2.2 SSE 11 15 6 8 1018.3 1018.2 0.0
29/10:00pm 14.5 12.1 9.9 74 2.4 S 13 17 7 9 1018.4 1018.3 0.0
29/09:30pm 14.8 12.7 9.8 72 2.6 SSE 11 19 6 10 1018.6 1018.5 0.0

Other Formats:

Comma delimited format used in spreadsheet applications
http://www.bom.gov.au/fwo/IDS60801/IDS60801.95663.axf

JavaScript Object Notation format (JSON) in row-major order
http://www.bom.gov.au/fwo/IDS60801/IDS60801.95663.json